Time,TemperatureF,DewpointF,PressureIn,WindDirection,WindDirectionDegrees,WindSpeedMPH,WindSpeedGustMPH,Humidity,HourlyPrecipIn,Conditions,Clouds,dailyrainin,SoftwareType,DateUTC
2013-10-30 00:11:00,30.0,25.0,30.09,South,186,0.0,-999.0,81,-99.99,,,-99.99,,2013-10-30 07:11:00,
2013-10-30 00:21:00,30.0,25.0,30.09,South,186,0.0,-999.0,81,-99.99,,,-99.99,,2013-10-30 07:21:00,
2013-10-30 00:42:00,30.0,25.0,30.09,South,186,0.0,-999.0,81,-99.99,,,-99.99,,2013-10-30 07:42:00,
2013-10-30 00:52:00,30.0,25.0,30.09,South,186,0.0,-999.0,82,-99.99,,,-99.99,,2013-10-30 07:52:00,
2013-10-30 01:11:00,30.0,25.0,30.09,South,186,0.0,-999.0,83,-99.99,,,-99.99,,2013-10-30 08:11:00,
2013-10-30 01:21:00,29.0,25.0,30.10,South,186,0.0,-999.0,83,-99.99,,,-99.99,,2013-10-30 08:21:00,
2013-10-30 01:42:00,29.0,25.0,30.10,South,186,0.0,-999.0,83,-99.99,,,-99.99,,2013-10-30 08:42:00,
2013-10-30 01:52:00,29.0,25.0,30.10,South,186,0.0,-999.0,83,-99.99,,,-99.99,,2013-10-30 08:52:00,
2013-10-30 02:11:00,29.0,25.0,30.10,South,186,0.0,-999.0,84,-99.99,,,-99.99,,2013-10-30 09:11:00,
2013-10-30 02:21:00,29.0,25.0,30.10,South,186,0.0,-999.0,84,-99.99,,,-99.99,,2013-10-30 09:21:00,
2013-10-30 02:42:00,28.0,24.0,30.10,South,186,0.0,-999.0,85,-99.99,,,-99.99,,2013-10-30 09:42:00,
2013-10-30 02:53:00,28.0,24.0,30.11,South,186,0.0,-999.0,85,-99.99,,,-99.99,,2013-10-30 09:53:00,
2013-10-30 03:12:00,28.0,24.0,30.10,South,186,0.0,-999.0,85,-99.99,,,-99.99,,2013-10-30 10:12:00,
2013-10-30 03:23:00,28.0,26.0,30.10,South,186,0.0,-999.0,92,-99.99,,,-99.99,,2013-10-30 10:23:00,
2013-10-30 03:43:00,28.0,24.0,30.11,South,186,0.0,-999.0,86,-99.99,,,-99.99,,2013-10-30 10:43:00,
2013-10-30 03:53:00,27.0,23.0,30.10,South,186,0.0,-999.0,86,-99.99,,,-99.99,,2013-10-30 10:53:00,
2013-10-30 04:12:00,27.0,23.0,30.10,South,186,0.0,-999.0,86,-99.99,,,-99.99,,2013-10-30 11:12:00,
2013-10-30 04:22:00,27.0,23.0,30.10,South,186,0.0,-999.0,86,-99.99,,,-99.99,,2013-10-30 11:22:00,
2013-10-30 04:42:00,27.0,23.0,30.11,South,186,0.0,-999.0,86,-99.99,,,-99.99,,2013-10-30 11:42:00,
2013-10-30 04:52:00,27.0,24.0,30.11,South,186,0.0,-999.0,87,-99.99,,,-99.99,,2013-10-30 11:52:00,
2013-10-30 05:12:00,27.0,24.0,30.11,South,186,0.0,-999.0,87,-99.99,,,-99.99,,2013-10-30 12:12:00,
2013-10-30 05:22:00,27.0,24.0,30.12,South,186,0.0,-999.0,87,-99.99,,,-99.99,,2013-10-30 12:22:00,
2013-10-30 05:42:00,27.0,24.0,30.12,South,186,0.0,-999.0,87,-99.99,,,-99.99,,2013-10-30 12:42:00,
2013-10-30 05:52:00,26.0,23.0,30.12,South,186,0.0,-999.0,87,-99.99,,,-99.99,,2013-10-30 12:52:00,
2013-10-30 06:11:00,26.0,23.0,30.13,South,186,0.0,-999.0,87,-99.99,,,-99.99,,2013-10-30 13:11:00,
2013-10-30 06:22:00,26.0,23.0,30.13,South,186,0.0,-999.0,88,-99.99,,,-99.99,,2013-10-30 13:22:00,
2013-10-30 06:52:00,26.0,23.0,30.14,South,186,0.0,-999.0,88,-99.99,,,-99.99,,2013-10-30 13:52:00,
2013-10-30 07:11:00,26.0,23.0,30.14,South,186,0.0,-999.0,88,-99.99,,,-99.99,,2013-10-30 14:11:00,
2013-10-30 07:21:00,26.0,23.0,30.14,South,186,0.0,-999.0,88,-99.99,,,-99.99,,2013-10-30 14:21:00,
2013-10-30 07:42:00,25.0,22.0,30.14,South,186,0.0,-999.0,88,-99.99,,,-99.99,,2013-10-30 14:42:00,
2013-10-30 07:52:00,26.0,23.0,30.15,South,186,0.0,-999.0,89,-99.99,,,-99.99,,2013-10-30 14:52:00,
2013-10-30 08:11:00,25.0,22.0,30.15,South,186,0.0,-999.0,89,-99.99,,,-99.99,,2013-10-30 15:11:00,
2013-10-30 08:22:00,25.0,22.0,30.16,South,186,0.0,-999.0,89,-99.99,,,-99.99,,2013-10-30 15:22:00,
2013-10-30 08:43:00,26.0,23.0,30.16,South,186,0.0,-999.0,89,-99.99,,,-99.99,,2013-10-30 15:43:00,
2013-10-30 08:54:00,26.0,23.0,30.16,South,186,0.0,-999.0,89,-99.99,,,-99.99,,2013-10-30 15:54:00,
2013-10-30 09:12:00,26.0,23.0,30.17,South,186,0.0,-999.0,89,-99.99,,,-99.99,,2013-10-30 16:12:00,
2013-10-30 09:23:00,27.0,24.0,30.17,South,186,1.0,-999.0,88,-99.99,,,-99.99,,2013-10-30 16:23:00,
2013-10-30 09:42:00,29.0,25.0,30.17,South,186,0.0,-999.0,84,-99.99,,,-99.99,,2013-10-30 16:42:00,
2013-10-30 09:53:00,30.0,25.0,30.16,South,186,0.0,-999.0,82,-99.99,,,-99.99,,2013-10-30 16:53:00,
2013-10-30 10:12:00,31.0,26.0,30.16,South,186,0.0,-999.0,81,-99.99,,,-99.99,,2013-10-30 17:12:00,
2013-10-30 10:22:00,34.0,27.0,30.16,South,186,0.0,-999.0,76,-99.99,,,-99.99,,2013-10-30 17:22:00,
2013-10-30 10:42:00,35.0,28.0,30.16,South,186,0.0,-999.0,75,-99.99,,,-99.99,,2013-10-30 17:42:00,
2013-10-30 10:52:00,37.0,28.0,30.15,South,186,0.0,-999.0,71,-99.99,,,-99.99,,2013-10-30 17:52:00,
2013-10-30 11:12:00,38.0,28.0,30.15,South,186,0.0,-999.0,66,-99.99,,,-99.99,,2013-10-30 18:12:00,
2013-10-30 11:21:00,40.0,30.0,30.15,South,186,0.0,-999.0,66,-99.99,,,-99.99,,2013-10-30 18:21:00,
2013-10-30 11:42:00,42.0,30.0,30.15,South,186,0.0,-999.0,61,-99.99,,,-99.99,,2013-10-30 18:42:00,
2013-10-30 11:52:00,43.0,29.0,30.14,South,186,0.0,-999.0,58,-99.99,,,-99.99,,2013-10-30 18:52:00,
2013-10-30 12:11:00,44.0,30.0,30.14,South,186,1.0,-999.0,58,-99.99,,,-99.99,,2013-10-30 19:11:00,
2013-10-30 12:21:00,45.0,30.0,30.13,South,186,0.0,-999.0,55,-99.99,,,-99.99,,2013-10-30 19:21:00,
2013-10-30 12:52:00,47.0,29.0,30.11,South,186,0.0,-999.0,49,-99.99,,,-99.99,,2013-10-30 19:52:00,
2013-10-30 13:12:00,48.0,29.0,30.10,South,186,0.0,-999.0,48,-99.99,,,-99.99,,2013-10-30 20:12:00,
2013-10-30 13:21:00,49.0,30.0,30.09,South,186,1.0,-999.0,47,-99.99,,,-99.99,,2013-10-30 20:21:00,
2013-10-30 13:42:00,49.0,29.0,30.09,South,186,1.0,-999.0,45,-99.99,,,-99.99,,2013-10-30 20:42:00,
2013-10-30 13:52:00,51.0,30.0,30.08,South,186,1.0,-999.0,44,-99.99,,,-99.99,,2013-10-30 20:52:00,
2013-10-30 14:12:00,52.0,30.0,30.08,South,186,1.0,-999.0,42,-99.99,,,-99.99,,2013-10-30 21:12:00,
2013-10-30 14:21:00,52.0,28.0,30.07,South,186,1.0,-999.0,39,-99.99,,,-99.99,,2013-10-30 21:21:00,
2013-10-30 14:53:00,54.0,31.0,30.07,South,186,1.0,-999.0,41,-99.99,,,-99.99,,2013-10-30 21:53:00,
2013-10-30 15:13:00,54.0,30.0,30.07,South,186,1.0,-999.0,40,-99.99,,,-99.99,,2013-10-30 22:13:00,
2013-10-30 15:23:00,53.0,29.0,30.07,South,186,1.0,-999.0,40,-99.99,,,-99.99,,2013-10-30 22:23:00,
2013-10-30 15:43:00,53.0,30.0,30.07,South,186,1.0,-999.0,41,-99.99,,,-99.99,,2013-10-30 22:43:00,
2013-10-30 15:53:00,53.0,31.0,30.07,South,186,0.0,-999.0,42,-99.99,,,-99.99,,2013-10-30 22:53:00,
2013-10-30 16:12:00,51.0,30.0,30.08,South,186,0.0,-999.0,45,-99.99,,,-99.99,,2013-10-30 23:12:00,
2013-10-30 16:22:00,50.0,31.0,30.08,South,186,0.0,-999.0,47,-99.99,,,-99.99,,2013-10-30 23:22:00,
2013-10-30 16:42:00,50.0,32.0,30.08,South,186,0.0,-999.0,50,-99.99,,,-99.99,,2013-10-30 23:42:00,
2013-10-30 16:53:00,50.0,33.0,30.08,South,186,0.0,-999.0,52,-99.99,,,-99.99,,2013-10-30 23:53:00,
2013-10-30 17:11:00,49.0,33.0,30.08,South,186,0.0,-999.0,53,-99.99,,,-99.99,,2013-10-31 00:11:00,
2013-10-30 17:21:00,49.0,33.0,30.08,South,186,0.0,-999.0,54,-99.99,,,-99.99,,2013-10-31 00:21:00,
2013-10-30 17:42:00,49.0,34.0,30.08,South,186,0.0,-999.0,55,-99.99,,,-99.99,,2013-10-31 00:42:00,
2013-10-30 17:52:00,48.0,34.0,30.08,South,186,0.0,-999.0,57,-99.99,,,-99.99,,2013-10-31 00:52:00,
2013-10-30 18:12:00,48.0,34.0,30.09,South,186,0.0,-999.0,59,-99.99,,,-99.99,,2013-10-31 01:12:00,
2013-10-30 18:22:00,47.0,34.0,30.10,South,186,0.0,-999.0,60,-99.99,,,-99.99,,2013-10-31 01:22:00,
2013-10-30 18:42:00,47.0,34.0,30.10,South,186,0.0,-999.0,61,-99.99,,,-99.99,,2013-10-31 01:42:00,
2013-10-30 18:52:00,47.0,35.0,30.10,South,186,0.0,-999.0,62,-99.99,,,-99.99,,2013-10-31 01:52:00,
2013-10-30 19:11:00,47.0,35.0,30.11,South,186,0.0,-999.0,62,-99.99,,,-99.99,,2013-10-31 02:11:00,
2013-10-30 19:21:00,47.0,34.0,30.11,South,186,0.0,-999.0,61,-99.99,,,-99.99,,2013-10-31 02:21:00,
2013-10-30 20:11:00,46.0,35.0,30.12,South,186,0.0,-999.0,65,-99.99,,,-99.99,,2013-10-31 03:11:00,
2013-10-30 20:21:00,46.0,35.0,30.12,South,186,0.0,-999.0,65,-99.99,,,-99.99,,2013-10-31 03:21:00,
2013-10-30 20:44:00,46.0,35.0,30.13,South,186,0.0,-999.0,65,-99.99,,,-99.99,,2013-10-31 03:44:00,
2013-10-30 20:55:00,45.0,34.0,30.12,South,186,0.0,-999.0,65,-99.99,,,-99.99,,2013-10-31 03:55:00,
2013-10-30 21:14:00,44.0,33.0,30.13,South,186,0.0,-999.0,66,-99.99,,,-99.99,,2013-10-31 04:14:00,
2013-10-30 21:23:00,43.0,33.0,30.13,South,186,0.0,-999.0,67,-99.99,,,-99.99,,2013-10-31 04:23:00,
2013-10-30 21:43:00,42.0,33.0,30.13,South,186,0.0,-999.0,69,-99.99,,,-99.99,,2013-10-31 04:43:00,
2013-10-30 21:54:00,41.0,32.0,30.13,South,186,0.0,-999.0,71,-99.99,,,-99.99,,2013-10-31 04:54:00,
2013-10-30 22:13:00,40.0,31.0,30.14,South,186,0.0,-999.0,71,-99.99,,,-99.99,,2013-10-31 05:13:00,
2013-10-30 22:22:00,40.0,31.0,30.14,South,186,0.0,-999.0,71,-99.99,,,-99.99,,2013-10-31 05:22:00,
2013-10-30 22:43:00,39.0,31.0,30.15,South,186,0.0,-999.0,73,-99.99,,,-99.99,,2013-10-31 05:43:00,
2013-10-30 22:52:00,38.0,30.0,30.14,South,186,0.0,-999.0,74,-99.99,,,-99.99,,2013-10-31 05:52:00,
2013-10-30 23:12:00,38.0,31.0,30.14,South,186,0.0,-999.0,76,-99.99,,,-99.99,,2013-10-31 06:12:00,
2013-10-30 23:21:00,37.0,30.0,30.14,South,186,0.0,-999.0,76,-99.99,,,-99.99,,2013-10-31 06:21:00,
2013-10-30 23:42:00,37.0,30.0,30.15,South,186,0.0,-999.0,76,-99.99,,,-99.99,,2013-10-31 06:42:00,
2013-10-30 23:53:00,36.0,29.0,30.15,South,186,0.0,-999.0,77,-99.99,,,-99.99,,2013-10-31 06:53:00,